If you wish to contribute or participate in the discussions about articles you are invited to join SKYbrary as a registered user

 Actions

Eurico de Aguiar Salles Airport

From SKYbrary Wiki

SBVT
Airport
ICAO: SBVT – IATA: VIX
Summary
Name Eurico de Aguiar Salles Airport
Region South America and Caribbean
Territory Brazil BR.gif
Location Goiabeiras, Espirito Santo
Serving Vitoria
Elevation 3.048 m
10 ft3.048 m
Coordinates 20° 15' 53.28" S, 40° 16' 51.28" W
Runways
Designator Length Width Surface ROPS
5/23 1750 m5,741.47 ft
45 m147.638 ft
ASP yes/yes


METAR
Observation SBVT 120800Z 28003KT 9999 FEW019 OVC040 22/21 Q1015
Station Vitoria Aeroporto
Date/Time 12 November 2019 08:00:00
Wind direction 280°
Wind speed 03 kts
Lowest cloud amount few clouds
Temperature 22°C
Dew point 21°C
Humidity 94%
QNH 1015 hPa
Weather condition n/a

Eurico de Aguiar Salles Airport, formerly called Goiabeiras Airport after the neighborhood where it is located, is the airport serving Vitória, Brazil.

Climatology

Tropical savanna climate (Köppen climate classification Aw)

Maps

Terrain

Loading map...

Airport Layout

Loading map...


Accidents & Serious Incidents at or in vicinity of SBVT

None on SKYbrary